Time;durP1;ratioP1;P1;durP2;ratioP2;P2;SDS_P1;SDS_P2;PMS_P1;PMS_P2;Temp;Humidity;BMP_temperature;BMP_pressure;BME280_temperature;BME280_humidity;BME280_pressure;Samples;Min_cycle;Max_cycle;Signal;HPM_P1;HPM_P2
2021/12/24 00:01:50;;;;;;;;;22.25;22.25;;;;;11.49;65.57;100683.06;5085700;27;47198;-68
2021/12/24 00:04:15;;;;;;;;;31.25;25.50;;;;;11.52;65.30;100679.38;5080735;28;45433;-68
2021/12/24 00:06:41;;;;;;;;;29.25;28.25;;;;;11.52;65.35;100678.53;5081151;28;45160;-68
2021/12/24 00:09:06;;;;;;;;;29.00;28.50;;;;;11.55;65.19;100686.44;5080920;28;45288;-68
2021/12/24 00:11:33;;;;;;;;;24.00;22.50;;;;;11.56;65.25;100681.03;5080750;27;45882;-69
2021/12/24 00:14:01;;;;;;;;;25.00;23.25;;;;;11.53;65.45;100673.13;5080843;28;45236;-69
2021/12/24 00:16:37;;;;;;;;;30.75;27.25;;;;;11.58;65.44;100678.28;5084831;27;45338;-68
2021/12/24 00:20:16;;;;;;;;;31.50;22.00;;;;;11.58;65.51;100672.94;5081698;27;45718;-68
2021/12/24 00:22:28;;;;;;;;;34.00;27.75;;;;;11.58;65.36;100676.50;5053528;27;45276;-68
2021/12/24 00:35:50;;;;;;;;;34.25;27.50;;;;;11.60;65.50;100661.25;5080670;28;45496;-68
2021/12/24 00:38:16;;;;;;;;;30.00;26.00;;;;;11.56;65.31;100648.94;5080615;28;45300;-68
2021/12/24 00:40:44;;;;;;;;;28.50;22.50;;;;;11.58;64.94;100651.56;5080500;28;45457;-68
2021/12/24 00:43:11;;;;;;;;;28.50;26.25;;;;;11.58;65.62;100655.09;5080308;28;45402;-69
2021/12/24 00:45:40;;;;;;;;;27.50;24.75;;;;;11.58;65.35;100649.75;5080577;28;45206;-68
2021/12/24 00:48:07;;;;;;;;;27.00;26.75;;;;;11.59;65.40;100645.28;5080275;27;45369;-69
2021/12/24 00:50:55;;;;;;;;;29.75;26.25;;;;;11.55;65.40;100638.31;5081722;27;45340;-69
2021/12/24 00:56:04;;;;;;;;;28.50;26.75;;;;;11.61;65.17;100633.59;5080097;28;45275;-69
2021/12/24 00:58:31;;;;;;;;;28.25;25.00;;;;;11.60;65.24;100618.47;5079800;28;45229;-68
2021/12/24 01:00:57;;;;;;;;;27.50;24.75;;;;;11.63;65.28;100610.34;5080008;28;45504;-69
2021/12/24 01:03:23;;;;;;;;;27.00;23.00;;;;;11.59;65.48;100602.50;5079621;27;45486;-68
2021/12/24 01:05:48;;;;;;;;;34.00;29.00;;;;;11.59;65.53;100599.81;5079907;28;45322;-68
2021/12/24 01:08:14;;;;;;;;;25.75;23.00;;;;;11.64;65.42;100601.41;5080451;28;45557;-68
2021/12/24 01:10:56;;;;;;;;;28.00;24.75;;;;;11.64;65.30;100596.06;5079729;28;45513;-68
2021/12/24 01:13:22;;;;;;;;;23.75;23.50;;;;;11.65;65.26;100596.91;5080005;28;46984;-68
2021/12/24 01:15:57;;;;;;;;;24.50;23.25;;;;;11.63;65.23;100588.97;5079965;28;45437;-68
2021/12/24 01:18:48;;;;;;;;;28.50;21.25;;;;;11.65;65.01;100596.91;5080007;28;45433;-69
2021/12/24 01:21:29;;;;;;;;;28.25;27.00;;;;;11.63;65.38;100588.97;5080641;27;45288;-69
2021/12/24 01:24:02;;;;;;;;;31.75;30.75;;;;;11.64;65.44;100598.72;5079789;28;46837;-69
2021/12/24 01:26:39;;;;;;;;;22.50;22.50;;;;;11.62;65.60;100584.53;5079846;28;45512;-69
2021/12/24 01:40:05;;;;;;;;;24.25;21.75;;;;;11.47;65.48;100577.09;5080019;28;45221;-68
2021/12/24 01:42:42;;;;;;;;;30.00;25.25;;;;;11.55;65.21;100591.06;5079693;27;45337;-69
2021/12/24 01:45:30;;;;;;;;;27.00;22.50;;;;;11.58;65.56;100592.75;5079733;28;45334;-69
2021/12/24 01:48:03;;;;;;;;;28.50;28.00;;;;;11.60;65.48;100598.91;5079383;28;45645;-69
2021/12/24 01:50:31;;;;;;;;;28.00;24.25;;;;;11.56;65.59;100584.78;5079668;28;45451;-69
2021/12/24 01:52:58;;;;;;;;;28.75;24.00;;;;;11.54;65.42;100591.97;5075253;28;45813;-68
2021/12/24 01:55:24;;;;;;;;;28.50;25.00;;;;;11.58;65.08;100598.09;5079327;28;47009;-69
2021/12/24 01:57:50;;;;;;;;;28.50;27.75;;;;;11.57;65.50;100593.66;5079420;28;45235;-69
2021/12/24 02:00:21;;;;;;;;;30.50;26.75;;;;;11.62;65.69;100594.34;5079562;28;45326;-68
2021/12/24 02:02:47;;;;;;;;;28.00;23.25;;;;;11.60;65.58;100588.22;5065980;27;45270;-68
2021/12/24 02:05:13;;;;;;;;;28.00;25.50;;;;;11.60;65.25;100586.41;5079410;27;45303;-68
2021/12/24 02:07:39;;;;;;;;;32.50;25.25;;;;;11.63;65.53;100604.13;5078791;27;45215;-69
2021/12/24 02:10:07;;;;;;;;;28.75;27.75;;;;;11.64;65.54;100600.50;5088268;27;45267;-69
2021/12/24 02:12:34;;;;;;;;;29.00;26.25;;;;;11.61;65.23;100612.22;5082782;28;45509;-69
2021/12/24 02:15:03;;;;;;;;;35.25;23.25;;;;;11.62;65.11;100602.38;5082836;28;45343;-68
2021/12/24 02:17:52;;;;;;;;;31.25;30.00;;;;;11.62;65.52;100594.34;5082503;27;45434;-68
2021/12/24 02:28:38;;;;;;;;;28.75;27.00;;;;;11.59;65.54;100568.59;5082602;28;45600;-68
2021/12/24 02:31:06;;;;;;;;;29.25;26.75;;;;;11.58;65.68;100566.00;5077802;28;45520;-68
2021/12/24 02:33:32;;;;;;;;;27.25;26.00;;;;;11.61;65.39;100577.47;5082322;28;45335;-68
2021/12/24 02:35:58;;;;;;;;;29.00;27.75;;;;;11.60;65.56;100570.34;5082443;28;45403;-69
2021/12/24 02:38:23;;;;;;;;;33.50;27.25;;;;;11.59;65.76;100563.25;5082518;28;45259;-68
2021/12/24 02:40:49;;;;;;;;;27.50;25.25;;;;;11.60;65.45;100566.81;5082515;28;45281;-68
2021/12/24 02:43:18;;;;;;;;;33.50;29.50;;;;;11.60;65.31;100567.69;5084683;27;45710;-69
2021/12/24 02:45:46;;;;;;;;;31.50;29.50;;;;;11.60;65.45;100566.81;5082378;27;46075;-68
2021/12/24 02:56:09;;;;;;;;;29.50;27.00;;;;;11.61;65.28;100556.06;5082005;28;45239;-69
2021/12/24 02:58:44;;;;;;;;;22.75;22.25;;;;;11.63;65.31;100558.69;5090222;27;45766;-68
2021/12/24 03:01:15;;;;;;;;;29.50;26.50;;;;;11.62;65.48;100556.94;5082879;27;45430;-68
2021/12/24 03:03:43;;;;;;;;;30.75;28.50;;;;;11.58;65.24;100549.97;5081794;28;45407;-69
2021/12/24 03:06:09;;;;;;;;;25.50;25.00;;;;;11.60;65.24;100562.34;5068737;27;45319;-69
2021/12/24 03:08:34;;;;;;;;;32.00;29.25;;;;;11.62;65.41;100560.47;5082178;27;45291;-69
2021/12/24 03:11:00;;;;;;;;;25.00;24.50;;;;;11.63;65.53;100558.69;5081809;28;45292;-69
2021/12/24 03:13:27;;;;;;;;;33.25;30.25;;;;;11.63;65.16;100562.22;5063646;28;45320;-68
2021/12/24 03:15:56;;;;;;;;;32.75;29.75;;;;;11.63;65.67;100559.53;5084036;27;46545;-69
2021/12/24 03:18:26;;;;;;;;;33.50;30.00;;;;;11.63;65.51;100553.34;5084335;27;45461;-69
2021/12/24 03:21:00;;;;;;;;;34.50;30.75;;;;;11.61;65.62;100549.81;5081817;28;45297;-69
2021/12/24 03:23:38;;;;;;;;;32.00;28.00;;;;;11.62;65.15;100548.91;5081085;28;45339;-69
2021/12/24 03:26:07;;;;;;;;;30.50;29.25;;;;;11.59;65.46;100541.00;5081729;28;46359;-69
2021/12/24 03:28:33;;;;;;;;;27.75;25.50;;;;;11.58;65.56;100539.28;5081588;28;45327;-69
2021/12/24 03:30:59;;;;;;;;;27.00;24.25;;;;;11.59;65.28;100533.84;5077136;28;45312;-69
2021/12/24 03:33:25;;;;;;;;;30.75;27.75;;;;;11.57;65.50;100532.19;5086443;27;45352;-69
2021/12/24 03:35:51;;;;;;;;;28.25;28.00;;;;;11.59;65.37;100520.47;5081483;28;46244;-68
2021/12/24 03:38:16;;;;;;;;;25.25;25.25;;;;;11.60;65.39;100521.38;5081516;28;45245;-69
2021/12/24 03:40:41;;;;;;;;;34.00;28.75;;;;;11.60;65.65;100530.25;5081526;28;45402;-69
2021/12/24 03:43:07;;;;;;;;;28.25;25.75;;;;;11.61;65.38;100528.44;5081163;27;45252;-68
2021/12/24 03:46:17;;;;;;;;;27.25;24.00;;;;;11.61;65.57;100528.44;5081338;28;45355;-69
2021/12/24 03:48:27;;;;;;;;;29.00;25.75;;;;;11.58;65.45;100524.09;5072514;28;45407;-68
2021/12/24 03:51:02;;;;;;;;;24.75;23.50;;;;;11.62;65.68;100530.19;5092180;27;45576;-69
2021/12/24 03:56:12;;;;;;;;;26.25;26.00;;;;;11.61;65.58;100528.44;5080943;28;45321;-69
2021/12/24 03:58:37;;;;;;;;;27.25;25.50;;;;;11.63;65.60;100523.94;5081167;28;45236;-69
2021/12/24 04:01:03;;;;;;;;;27.00;24.00;;;;;11.58;65.36;100507.19;5081103;28;45462;-68
2021/12/24 04:03:28;;;;;;;;;31.50;28.50;;;;;11.59;65.48;100509.78;5080882;28;45434;-69
2021/12/24 04:05:54;;;;;;;;;24.25;24.00;;;;;11.59;65.61;100506.25;5080578;28;45200;-69
2021/12/24 04:08:19;;;;;;;;;23.75;22.25;;;;;11.58;65.51;100502.72;5071514;28;45244;-69
2021/12/24 04:10:45;;;;;;;;;29.00;25.25;;;;;11.60;65.53;100508.00;5081047;28;45707;-69
2021/12/24 04:13:13;;;;;;;;;30.75;26.50;;;;;11.57;65.30;100495.63;5081005;28;45321;-69
2021/12/24 04:15:38;;;;;;;;;29.25;27.25;;;;;11.60;65.83;100494.63;5080860;28;45525;-69
2021/12/24 04:18:16;;;;;;;;;29.25;25.75;;;;;11.60;65.85;100508.00;5080861;28;45365;-69
2021/12/24 04:26:10;;;;;;;;;24.25;24.00;;;;;11.55;65.48;100481.44;5086284;27;45429;-68
2021/12/24 04:28:36;;;;;;;;;25.75;23.50;;;;;11.57;65.84;100481.38;5080818;28;45309;-69
2021/12/24 04:31:02;;;;;;;;;23.00;22.00;;;;;11.54;65.81;100466.34;5076486;28;45536;-69
2021/12/24 04:33:33;;;;;;;;;24.25;23.00;;;;;11.58;65.97;100459.94;5079391;28;45521;-69
2021/12/24 04:36:10;;;;;;;;;29.00;23.25;;;;;11.60;65.89;100465.22;5080702;28;46173;-69
2021/12/24 04:38:59;;;;;;;;;29.25;24.00;;;;;11.61;65.87;100458.94;5067326;27;45609;-69
2021/12/24 05:03:05;;;;;;;;;27.50;24.75;;;;;11.62;66.33;100450.00;5083402;27;48443;-68
2021/12/24 05:05:44;;;;;;;;;26.00;24.50;;;;;11.58;66.32;100440.38;5080074;28;45552;-68
2021/12/24 05:10:40;;;;;;;;;29.50;27.25;;;;;11.65;66.16;100452.53;5079700;28;45568;-69
2021/12/24 05:13:08;;;;;;;;;28.00;24.25;;;;;11.64;65.94;100461.47;5080230;28;45379;-69
2021/12/24 05:15:39;;;;;;;;;30.75;24.75;;;;;11.62;66.33;100447.31;5079948;28;45295;-69
2021/12/24 05:23:25;;;;;;;;;24.75;22.25;;;;;11.64;66.14;100443.66;5079954;28;45299;-69
2021/12/24 05:25:51;;;;;;;;;24.25;23.00;;;;;11.64;66.20;100438.31;5079545;28;45355;-69
2021/12/24 05:28:18;;;;;;;;;24.00;21.00;;;;;11.62;66.50;100432.13;5079299;28;46106;-68
2021/12/24 05:30:45;;;;;;;;;23.75;20.25;;;;;11.61;66.39;100438.44;5078795;28;45445;-69
2021/12/24 05:33:16;;;;;;;;;22.00;21.50;;;;;11.58;66.25;100419.84;5079668;28;45348;-69
2021/12/24 05:35:43;;;;;;;;;23.50;22.25;;;;;11.59;66.89;100429.59;5079995;27;45594;-69
2021/12/24 05:38:08;;;;;;;;;26.50;24.00;;;;;11.60;66.71;100428.66;5079566;28;47222;-69
2021/12/24 05:40:34;;;;;;;;;28.25;21.00;;;;;11.61;66.91;100430.41;5079561;28;45473;-69
2021/12/24 05:42:59;;;;;;;;;24.25;22.50;;;;;11.60;66.93;100427.81;5079694;28;45415;-68
2021/12/24 05:45:25;;;;;;;;;22.00;20.75;;;;;11.60;66.79;100427.81;5080823;28;45624;-68
2021/12/24 05:47:51;;;;;;;;;28.75;26.00;;;;;11.61;66.76;100432.19;5083052;28;46993;-68
2021/12/24 05:50:17;;;;;;;;;26.00;21.25;;;;;11.59;67.35;100431.41;5087266;27;45583;-69
2021/12/24 05:52:42;;;;;;;;;28.00;25.25;;;;;11.58;67.44;100438.56;5083471;28;45285;-68
2021/12/24 05:55:09;;;;;;;;;24.00;22.50;;;;;11.63;67.18;100444.59;5082979;27;45573;-68
2021/12/24 05:57:34;;;;;;;;;28.75;25.25;;;;;11.62;67.26;100444.66;5083251;28;45449;-68
2021/12/24 06:00:05;;;;;;;;;27.00;24.50;;;;;11.60;67.49;100438.50;5082899;27;45245;-69
2021/12/24 06:02:30;;;;;;;;;22.25;20.50;;;;;11.62;67.45;100448.19;5082218;28;45249;-68
2021/12/24 06:04:55;;;;;;;;;22.75;21.25;;;;;11.63;67.38;100446.41;5079681;28;45411;-69
2021/12/24 06:07:20;;;;;;;;;16.50;13.50;;;;;11.62;67.50;100440.16;5084767;27;46107;-68
2021/12/24 06:09:46;;;;;;;;;20.00;20.00;;;;;11.59;67.52;100442.09;5082778;27;45246;-69
2021/12/24 06:12:11;;;;;;;;;23.00;22.00;;;;;11.63;67.70;100449.06;5082875;27;45375;-69
2021/12/24 06:14:39;;;;;;;;;26.50;23.75;;;;;11.62;67.90;100448.19;5082850;27;46471;-68
2021/12/24 06:17:10;;;;;;;;;30.50;22.50;;;;;11.60;67.67;100442.03;5082566;28;46938;-69
2021/12/24 06:19:35;;;;;;;;;22.75;21.25;;;;;11.64;67.61;100445.44;5082598;27;45481;-69
2021/12/24 06:22:00;;;;;;;;;25.50;22.00;;;;;11.67;67.83;100453.34;5089496;27;45535;-69
2021/12/24 06:24:26;;;;;;;;;20.00;19.00;;;;;11.67;67.72;100448.00;5082830;28;45283;-68
2021/12/24 06:26:52;;;;;;;;;22.00;21.25;;;;;11.69;67.76;100446.13;5082408;28;45309;-69
2021/12/24 06:29:18;;;;;;;;;21.25;21.00;;;;;11.68;67.91;100445.25;5082444;28;45256;-68
2021/12/24 06:31:44;;;;;;;;;23.50;22.00;;;;;11.70;68.00;100444.34;5082431;27;45429;-69
2021/12/24 06:34:09;;;;;;;;;24.50;22.25;;;;;11.72;67.88;100442.47;5082603;27;45286;-68
2021/12/24 06:36:39;;;;;;;;;22.50;21.25;;;;;11.69;67.85;100443.44;5082620;28;45604;-68
2021/12/24 06:39:05;;;;;;;;;16.00;16.00;;;;;11.70;68.17;100434.50;5087828;27;45866;-68
2021/12/24 06:41:30;;;;;;;;;21.50;20.50;;;;;11.69;67.91;100435.41;5082603;27;45342;-69
2021/12/24 06:43:56;;;;;;;;;19.50;18.50;;;;;11.63;68.27;100433.03;5048872;28;45316;-69
2021/12/24 06:46:21;;;;;;;;;20.25;19.25;;;;;11.63;68.14;100430.34;5082498;28;45289;-68
2021/12/24 06:48:53;;;;;;;;;17.00;16.25;;;;;11.64;68.62;100426.72;5081835;27;45228;-69
2021/12/24 06:51:19;;;;;;;;;22.75;20.25;;;;;11.67;68.03;100427.47;5082394;28;45370;-68
2021/12/24 06:53:45;;;;;;;;;24.75;21.00;;;;;11.67;68.67;100431.94;5082208;27;45376;-68
2021/12/24 06:56:10;;;;;;;;;27.75;21.50;;;;;11.66;68.30;100435.53;5087650;27;45331;-69
2021/12/24 06:58:37;;;;;;;;;19.00;17.00;;;;;11.66;68.52;100430.19;5083165;27;45421;-69
2021/12/24 07:01:03;;;;;;;;;24.75;21.50;;;;;11.71;68.50;100432.69;5072732;28;45276;-69
2021/12/24 07:03:29;;;;;;;;;16.25;15.00;;;;;11.65;68.41;100439.16;5078065;28;45364;-69
2021/12/24 07:05:54;;;;;;;;;21.00;19.50;;;;;11.67;68.59;100431.94;5082036;28;45334;-69
2021/12/24 07:08:20;;;;;;;;;24.75;21.25;;;;;11.63;68.69;100420.53;5081931;28;45456;-69
2021/12/24 07:10:45;;;;;;;;;21.00;19.25;;;;;11.65;69.09;100431.16;5082053;28;45498;-69
2021/12/24 07:13:11;;;;;;;;;23.25;20.50;;;;;11.63;69.01;100419.66;5085672;27;45421;-69
2021/12/24 07:15:36;;;;;;;;;29.75;23.00;;;;;11.67;69.02;100423.94;5067884;28;48024;-69
2021/12/24 07:18:01;;;;;;;;;22.25;21.25;;;;;11.65;68.87;100420.47;5081607;28;45249;-69
2021/12/24 07:20:27;;;;;;;;;22.75;20.25;;;;;11.66;69.03;100419.50;5079178;28;45331;-69
2021/12/24 07:22:52;;;;;;;;;17.25;16.00;;;;;11.65;69.27;100420.47;5081784;28;45344;-69
2021/12/24 07:25:17;;;;;;;;;13.50;12.00;;;;;11.65;69.14;100421.31;5081636;28;45270;-69
2021/12/24 07:27:43;;;;;;;;;22.50;20.50;;;;;11.69;68.97;100419.38;5081478;27;45302;-69
2021/12/24 07:30:10;;;;;;;;;19.00;17.25;;;;;11.69;69.27;100424.72;5082824;27;45443;-69
2021/12/24 07:32:39;;;;;;;;;23.00;19.00;;;;;11.62;69.12;100416.09;5082595;27;45383;-69
2021/12/24 07:35:04;;;;;;;;;19.25;15.50;;;;;11.70;69.41;100418.47;5081643;28;45343;-69
2021/12/24 07:37:30;;;;;;;;;19.25;18.00;;;;;11.66;69.10;100404.34;5081602;28;45204;-69
2021/12/24 07:39:55;;;;;;;;;14.25;14.25;;;;;11.67;69.24;100406.06;5081696;27;45237;-69
2021/12/24 07:42:21;;;;;;;;;20.75;18.75;;;;;11.65;69.28;100399.06;5062904;28;45916;-69
2021/12/24 07:44:46;;;;;;;;;15.75;14.00;;;;;11.64;69.65;100397.31;5081467;28;45559;-69
2021/12/24 07:47:18;;;;;;;;;18.00;15.00;;;;;11.64;69.57;100406.22;5087234;27;45460;-69
2021/12/24 07:49:44;;;;;;;;;18.25;16.75;;;;;11.67;69.73;100411.41;5081574;28;45246;-69
2021/12/24 07:52:12;;;;;;;;;11.75;11.75;;;;;11.67;69.60;100419.44;5081191;27;45829;-69
2021/12/24 07:54:48;;;;;;;;;16.75;14.75;;;;;11.71;69.71;100427.34;5081173;28;45241;-69
2021/12/24 07:57:15;;;;;;;;;14.00;11.75;;;;;11.73;69.73;100425.47;5080962;27;45308;-69
2021/12/24 07:59:42;;;;;;;;;16.25;14.75;;;;;11.75;69.82;100423.63;5081635;28;45480;-69
2021/12/24 08:02:10;;;;;;;;;16.50;13.50;;;;;11.75;69.58;100420.94;5080777;28;45482;-69
2021/12/24 08:04:37;;;;;;;;;15.25;13.75;;;;;11.76;69.71;100418.22;5079494;27;46107;-69
2021/12/24 08:07:03;;;;;;;;;17.75;14.00;;;;;11.77;69.58;100411.03;5081136;28;45496;-69
2021/12/24 08:09:29;;;;;;;;;14.00;11.25;;;;;11.78;69.50;100407.44;5062750;28;45316;-69
2021/12/24 08:11:54;;;;;;;;;12.25;12.25;;;;;11.81;69.79;100418.88;5080940;28;45487;-69
2021/12/24 08:14:19;;;;;;;;;10.75;10.00;;;;;11.82;69.66;100409.91;5080877;28;45567;-69
2021/12/24 08:16:45;;;;;;;;;13.25;12.50;;;;;11.81;69.64;100393.91;5081076;28;45348;-69
2021/12/24 08:19:13;;;;;;;;;12.75;11.75;;;;;11.79;69.74;100396.66;5066522;27;45605;-69
2021/12/24 08:21:39;;;;;;;;;13.50;13.50;;;;;11.78;69.62;100400.28;5081151;28;45224;-69
2021/12/24 08:24:04;;;;;;;;;13.50;11.00;;;;;11.81;69.83;100400.16;5080731;28;46199;-69
2021/12/24 08:26:31;;;;;;;;;15.25;14.25;;;;;11.82;69.73;100396.53;5080737;28;45241;-69
2021/12/24 08:28:56;;;;;;;;;11.25;10.50;;;;;11.82;69.95;100391.19;5080897;28;45385;-69
2021/12/24 08:31:22;;;;;;;;;10.50;9.75;;;;;11.82;69.80;100393.84;5080588;28;45378;-69
2021/12/24 08:33:47;;;;;;;;;14.75;12.25;;;;;11.89;69.64;100404.31;5080330;28;46437;-69
2021/12/24 08:36:13;;;;;;;;;14.50;14.00;;;;;11.90;69.44;100398.03;5087691;27;45346;-69
2021/12/24 08:38:39;;;;;;;;;12.75;11.75;;;;;11.92;69.70;100404.22;5080663;28;45773;-69
2021/12/24 08:41:05;;;;;;;;;11.00;11.00;;;;;11.91;69.79;100394.41;5080450;27;45362;-69
2021/12/24 08:43:31;;;;;;;;;20.50;14.75;;;;;11.90;69.55;100380.16;5080219;27;45375;-69
2021/12/24 08:45:56;;;;;;;;;23.00;16.75;;;;;11.92;69.93;100377.47;5081438;27;46096;-69
2021/12/24 08:48:22;;;;;;;;;18.25;15.25;;;;;11.95;69.66;100383.53;5094407;27;45958;-69
2021/12/24 08:50:47;;;;;;;;;20.25;13.25;;;;;11.95;69.92;100377.31;5080073;27;45295;-69
2021/12/24 08:53:12;;;;;;;;;14.00;11.75;;;;;11.94;69.60;100376.44;5079325;27;45607;-70
2021/12/24 08:55:38;;;;;;;;;16.50;13.00;;;;;11.92;69.57;100377.47;5084060;27;45214;-70
2021/12/24 08:58:04;;;;;;;;;20.75;18.00;;;;;11.97;69.64;100384.34;5080416;28;45241;-70
2021/12/24 09:00:30;;;;;;;;;14.00;12.00;;;;;11.95;69.68;100370.16;5081336;27;45429;-70
2021/12/24 09:02:56;;;;;;;;;13.50;12.75;;;;;11.98;69.95;100380.72;5082364;27;45421;-69
2021/12/24 09:05:22;;;;;;;;;15.25;15.25;;;;;12.01;69.98;100379.72;5080451;28;45448;-69
2021/12/24 09:07:48;;;;;;;;;16.25;12.75;;;;;12.00;69.71;100386.03;5080141;28;45385;-69
2021/12/24 09:10:13;;;;;;;;;13.00;11.75;;;;;12.03;69.79;100389.41;5080280;28;45339;-69
2021/12/24 09:12:42;;;;;;;;;9.75;9.75;;;;;12.04;69.67;100387.59;5080123;28;45426;-69
2021/12/24 09:15:09;;;;;;;;;12.75;11.75;;;;;12.07;70.03;100389.28;5082683;27;45667;-69
2021/12/24 09:17:34;;;;;;;;;14.25;14.25;;;;;12.03;69.90;100380.53;5048354;28;45328;-69
2021/12/24 09:20:00;;;;;;;;;12.75;11.25;;;;;12.05;69.88;100387.53;5085155;27;45308;-69
2021/12/24 09:22:31;;;;;;;;;15.25;13.25;;;;;12.03;69.98;100377.88;5080200;27;45212;-69
2021/12/24 09:24:57;;;;;;;;;16.75;12.00;;;;;12.07;69.83;100389.28;5072410;28;45232;-69
2021/12/24 09:27:24;;;;;;;;;16.75;12.00;;;;;12.07;70.09;100383.94;5080431;27;45319;-71
2021/12/24 09:29:50;;;;;;;;;15.50;13.25;;;;;12.09;70.00;100382.06;5087976;27;45243;-68
2021/12/24 09:32:16;;;;;;;;;11.00;11.00;;;;;12.10;70.21;100394.50;5078058;27;45374;-69
2021/12/24 09:34:41;;;;;;;;;11.50;11.50;;;;;12.07;69.95;100382.13;5085743;27;45495;-69
2021/12/24 09:37:07;;;;;;;;;13.00;13.00;;;;;12.11;70.02;100382.84;5078817;27;45236;-69
2021/12/24 09:39:32;;;;;;;;;17.00;15.50;;;;;12.11;70.04;100388.22;5090486;27;45505;-69
2021/12/24 09:41:59;;;;;;;;;15.50;13.50;;;;;12.12;70.27;100381.94;5079455;28;45402;-69
2021/12/24 09:44:25;;;;;;;;;20.75;15.25;;;;;12.16;70.05;100378.16;5067034;28;45466;-69
2021/12/24 09:46:50;;;;;;;;;12.00;11.75;;;;;12.10;70.28;100365.09;5077733;27;45379;-69
2021/12/24 09:49:16;;;;;;;;;17.75;16.25;;;;;12.14;70.37;100366.66;5092020;27;45268;-69
2021/12/24 09:51:45;;;;;;;;;16.75;15.75;;;;;12.11;70.50;100361.44;5079515;27;45411;-69
2021/12/24 09:54:14;;;;;;;;;13.75;13.75;;;;;12.15;70.37;100371.94;5079501;28;45269;-69
2021/12/24 09:56:41;;;;;;;;;17.50;14.75;;;;;12.18;70.62;100381.66;5079474;28;45417;-69
2021/12/24 09:59:07;;;;;;;;;12.75;12.75;;;;;12.16;70.11;100383.50;5079649;28;45301;-70
2021/12/24 10:01:43;;;;;;;;;16.75;15.00;;;;;12.19;70.66;100381.56;5057197;27;48356;-69
2021/12/24 10:04:14;;;;;;;;;13.75;13.00;;;;;12.15;70.68;100379.97;5081496;27;45563;-69
2021/12/24 10:06:52;;;;;;;;;15.00;14.25;;;;;12.19;70.68;100370.88;5081239;27;45354;-69
2021/12/24 10:09:18;;;;;;;;;12.75;11.00;;;;;12.20;70.58;100361.06;5079660;28;45292;-69
2021/12/24 10:12:05;;;;;;;;;17.75;17.75;;;;;12.22;70.63;100353.81;5082473;27;45483;-69
2021/12/24 10:14:40;;;;;;;;;14.50;14.00;;;;;12.20;70.81;100351.22;5084340;27;45350;-69
2021/12/24 10:17:18;;;;;;;;;22.50;18.50;;;;;12.21;70.92;100350.28;5080978;27;45492;-69
2021/12/24 10:19:53;;;;;;;;;16.75;15.50;;;;;12.20;70.82;100347.66;5079191;27;45370;-70
2021/12/24 10:22:19;;;;;;;;;15.50;14.00;;;;;12.23;70.50;100348.41;5088953;27;45348;-69
2021/12/24 10:25:01;;;;;;;;;15.75;14.75;;;;;12.24;70.79;100351.94;5078492;28;45318;-69
2021/12/24 10:27:32;;;;;;;;;38.50;34.50;;;;;12.25;70.98;100350.16;5080263;27;45474;-69
2021/12/24 10:29:58;;;;;;;;;116.75;113.50;;;;;12.27;70.70;100340.22;5077488;27;45220;-69
2021/12/24 10:32:23;;;;;;;;;53.00;45.00;;;;;12.30;70.83;100340.97;5073829;27;46060;-69
2021/12/24 10:34:49;;;;;;;;;27.50;23.50;;;;;12.28;71.15;100333.91;5088846;27;45446;-70
2021/12/24 10:37:24;;;;;;;;;15.75;15.75;;;;;12.33;70.89;100339.94;5080969;27;45366;-70
2021/12/24 10:39:52;;;;;;;;;19.75;16.00;;;;;12.32;70.82;100340.88;5080583;27;45580;-70
2021/12/24 10:42:20;;;;;;;;;15.00;12.75;;;;;12.33;70.93;100334.56;5082110;28;45895;-69
2021/12/24 10:44:47;;;;;;;;;16.50;14.00;;;;;12.29;70.87;100320.47;5076320;27;45507;-70
2021/12/24 10:47:18;;;;;;;;;15.25;15.00;;;;;12.27;71.11;100318.81;5067203;28;45449;-69
2021/12/24 10:55:18;;;;;;;;;15.00;13.00;;;;;12.27;71.21;100321.50;5073392;28;45264;-72
2021/12/24 10:57:46;;;;;;;;;16.00;14.00;;;;;12.27;71.37;100317.00;5074361;27;45177;-72
2021/12/24 11:00:17;;;;;;;;;14.75;14.75;;;;;12.30;71.26;100322.22;5081982;28;45384;-72
2021/12/24 11:02:42;;;;;;;;;21.75;21.00;;;;;12.34;71.17;100320.25;5071977;28;45653;-72
2021/12/24 11:05:25;;;;;;;;;15.50;12.25;;;;;12.37;71.45;100314.78;5076692;27;45386;-70
2021/12/24 11:07:51;;;;;;;;;17.75;16.75;;;;;12.36;71.13;100302.31;5071419;28;45252;-69
2021/12/24 11:10:19;;;;;;;;;15.50;14.25;;;;;12.38;71.22;100306.69;5066303;28;46017;-70
2021/12/24 11:12:56;;;;;;;;;10.25;10.25;;;;;12.40;71.22;100301.25;5079830;27;45336;-69
2021/12/24 11:15:35;;;;;;;;;14.75;12.50;;;;;12.37;71.00;100282.66;5066807;27;45780;-71
2021/12/24 11:18:07;;;;;;;;;9.50;9.25;;;;;12.41;71.32;100270.84;5076729;27;45470;-71
2021/12/24 11:20:35;;;;;;;;;16.25;15.50;;;;;12.41;71.12;100257.47;5077097;28;45504;-71
2021/12/24 11:23:03;;;;;;;;;14.75;14.75;;;;;12.39;70.96;100251.31;5076197;28;45498;-72
2021/12/24 11:25:33;;;;;;;;;13.50;13.50;;;;;12.46;71.18;100251.91;5072402;27;45467;-68
2021/12/24 11:27:59;;;;;;;;;14.75;13.25;;;;;12.48;70.94;100256.25;5072554;27;45410;-68
2021/12/24 11:30:27;;;;;;;;;14.25;13.25;;;;;12.51;71.15;100264.13;5056552;28;45418;-72
2021/12/24 11:32:53;;;;;;;;;16.50;14.50;;;;;12.52;70.92;100260.50;5065580;28;45413;-66
2021/12/24 11:35:18;;;;;;;;;13.50;12.25;;;;;12.53;71.11;100256.91;5075150;28;45533;-70
2021/12/24 11:37:46;;;;;;;;;12.50;8.75;;;;;12.51;71.13;100250.75;5070757;27;45558;-70
2021/12/24 11:40:15;;;;;;;;;14.50;12.00;;;;;12.46;71.50;100238.50;5058500;28;46196;-70
2021/12/24 11:42:54;;;;;;;;;11.75;8.00;;;;;12.37;70.88;100231.81;5076592;28;46253;-70
2021/12/24 11:45:22;;;;;;;;;7.75;7.75;;;;;12.47;71.15;100240.25;5077059;28;45521;-70
2021/12/24 11:47:48;;;;;;;;;12.75;11.75;;;;;12.49;71.01;100243.72;5057239;28;45498;-70
2021/12/24 11:50:13;;;;;;;;;15.25;13.75;;;;;12.49;71.09;100257.97;5073578;28;45551;-70
2021/12/24 11:52:40;;;;;;;;;9.00;9.00;;;;;12.51;71.05;100256.13;5076910;28;46586;-70
2021/12/24 11:55:06;;;;;;;;;11.00;8.25;;;;;12.54;70.79;100252.41;5075791;28;45920;-70
2021/12/24 11:57:31;;;;;;;;;63.00;49.75;;;;;12.60;70.70;100262.81;5077306;28;45441;-68
2021/12/24 11:59:57;;;;;;;;;62.25;48.25;;;;;12.59;70.82;100251.22;5054787;28;45398;-68
2021/12/24 12:02:46;;;;;;;;;57.50;46.50;;;;;12.62;70.59;100252.03;5075399;28;45361;-69
2021/12/24 12:05:15;;;;;;;;;14.50;14.25;;;;;12.65;70.63;100254.56;5072339;28;45711;-69
2021/12/24 12:07:41;;;;;;;;;15.50;14.25;;;;;12.65;70.71;100250.06;5076340;28;45514;-71
2021/12/24 12:10:07;;;;;;;;;15.75;13.75;;;;;12.63;70.49;100243.03;5076435;28;45592;-71
2021/12/24 12:12:34;;;;;;;;;11.50;11.50;;;;;12.65;70.72;100241.19;5074187;28;46654;-68
2021/12/24 12:15:30;;;;;;;;;14.50;14.50;;;;;12.70;70.74;100249.84;5080450;28;45647;-68
2021/12/24 12:18:04;;;;;;;;;12.00;9.75;;;;;12.71;70.77;100260.50;5075838;28;45338;-68
2021/12/24 12:20:48;;;;;;;;;14.75;14.25;;;;;12.75;70.95;100253.19;5077439;27;45478;-68
2021/12/24 12:23:50;;;;;;;;;13.75;13.75;;;;;12.76;70.93;100252.22;5077955;28;47005;-68
2021/12/24 12:26:33;;;;;;;;;12.00;11.00;;;;;12.75;70.73;100259.38;5081172;27;45593;-68
2021/12/24 12:29:20;;;;;;;;;14.75;14.75;;;;;12.77;70.72;100264.69;5078642;27;45410;-68
2021/12/24 12:31:47;;;;;;;;;17.00;15.50;;;;;12.77;70.72;100262.00;5078882;27;45588;-68
2021/12/24 12:34:45;;;;;;;;;13.00;13.00;;;;;12.77;70.99;100253.97;5073291;27;45293;-68
2021/12/24 12:37:23;;;;;;;;;13.00;13.00;;;;;12.76;70.91;100253.09;5076120;27;45362;-68
2021/12/24 12:39:52;;;;;;;;;12.25;11.25;;;;;12.78;70.75;100237.81;5079635;28;45319;-68
2021/12/24 12:42:22;;;;;;;;;14.50;12.50;;;;;12.77;70.83;100235.22;5080318;28;45540;-68